^^
Datos históricos de la estación: Murcia-Puente Tocinos
Diario Informe para Octubre 15, 2020 Unidades:  Ambas    Ingés   Métrico
Diario Semanal Mensual Anual
  Máxima: Mínima: Promedio:
Temperatura: 65.5 °F /  18.6 °C 55.8 °F /  13.2 °C 58.8 °F /  14.9 °C
Punto de rocio: 54.9 °F /  12.7 °C 36 °F /  2.2 °C 43 °F /  6.1 °C
Humedad: 81% 35% 58%
Velocidad viento: 8.7mph /  14km/h - 4.7mph /  7.6km/h
Racha viento: 19mph /  30.6km/h - -
Viento- - SSO
Presión: 30 in /  1016.1 hPa 29.9 in /  1013.2 hPa -
Precipitación: 0 in /  0.0 mm    
 
 
Tabla de datos para Octubre 15, 2020
Hora Temperatura Punto de rocio Presión Viento Velocidad viento Racha viento Humedad Intensidad lluvia(por hora) Nubes
00:04 60.8 °F /  16 °C 54.9 °F /  12.7 °C 29.9in /  1013.2hPa SSE 3.4mph /  5.5km/h 5mph /  8km/h 81% 0in /  0.0mm
00:09 60.6 °F /  15.9 °C 54.9 °F /  12.7 °C 29.9in /  1013.3hPa SSE 2mph /  3.2km/h 2.3mph /  3.7km/h 81% 0in /  0.0mm
00:14 60.6 °F /  15.9 °C 54.9 °F /  12.7 °C 29.9in /  1013.3hPa SSE 1.9mph /  3.1km/h 3.6mph /  5.8km/h 81% 0in /  0.0mm
00:19 60.6 °F /  15.9 °C 54.9 °F /  12.7 °C 29.9in /  1013.3hPa SSO 1.4mph /  2.3km/h 5mph /  8km/h 81% 0in /  0.0mm
00:24 60.6 °F /  15.9 °C 54.9 °F /  12.7 °C 29.9in /  1013.3hPa Sur 1.4mph /  2.3km/h 5mph /  8km/h 81% 0in /  0.0mm
00:29 60.6 °F /  15.9 °C 54.9 °F /  12.7 °C 29.9in /  1013.3hPa SSO 2.9mph /  4.6km/h 5mph /  8km/h 81% 0in /  0.0mm
00:34 60.6 °F /  15.9 °C 54.9 °F /  12.7 °C 29.9in /  1013.3hPa SO 2.9mph /  4.6km/h 6.4mph /  10.3km/h 81% 0in /  0.0mm
00:39 60.6 °F /  15.9 °C 54.9 °F /  12.7 °C 29.9in /  1013.3hPa SSO 2.9mph /  4.6km/h 7mph /  11.3km/h 81% 0in /  0.0mm
00:44 60.8 °F /  16 °C 54.7 °F /  12.6 °C 29.9in /  1013.3hPa Sur 2.9mph /  4.6km/h 7mph /  11.3km/h 80.2% 0in /  0.0mm
00:49 60.8 °F /  16 °C 54.5 °F /  12.5 °C 29.9in /  1013.3hPa SSE 3.1mph /  5km/h 5mph /  8km/h 80% 0in /  0.0mm
00:54 60.6 °F /  15.9 °C 54.3 °F /  12.4 °C 29.9in /  1013.3hPa Sur 2.9mph /  4.7km/h 4.6mph /  7.4km/h 80% 0in /  0.0mm
00:59 60.4 °F /  15.8 °C 54.3 °F /  12.4 °C 29.9in /  1013.3hPa SO 1.8mph /  2.9km/h 5mph /  8km/h 80% 0in /  0.0mm
01:04 60.4 °F /  15.8 °C 54.7 °F /  12.6 °C 29.9in /  1013.3hPa OSO 2.1mph /  3.3km/h 5.4mph /  8.7km/h 80.8% 0in /  0.0mm
01:09 60.4 °F /  15.8 °C 54.3 °F /  12.4 °C 29.9in /  1013.3hPa OSO 2.9mph /  4.6km/h 6mph /  9.7km/h 80.4% 0in /  0.0mm
01:14 60.4 °F /  15.8 °C 54.5 °F /  12.5 °C 29.9in /  1013.3hPa OSO 2.9mph /  4.7km/h 5.2mph /  8.4km/h 80.7% 0in /  0.0mm
01:19 60.3 °F /  15.7 °C 54.1 °F /  12.3 °C 29.9in /  1013.3hPa OSO 2.9mph /  4.6km/h 5mph /  8km/h 80% 0in /  0.0mm
01:24 60.1 °F /  15.6 °C 54.1 °F /  12.3 °C 29.9in /  1013.3hPa SO 2.9mph /  4.6km/h 5.2mph /  8.4km/h 80.9% 0in /  0.0mm
01:29 60.1 °F /  15.6 °C 54.1 °F /  12.3 °C 29.9in /  1013.3hPa OSO 2.9mph /  4.7km/h 5.8mph /  9.3km/h 81% 0in /  0.0mm
01:34 59.7 °F /  15.4 °C 54 °F /  12.2 °C 29.9in /  1013.3hPa ONO 2.9mph /  4.6km/h 6mph /  9.7km/h 81% 0in /  0.0mm
01:39 59.7 °F /  15.4 °C 54 °F /  12.2 °C 29.9in /  1013.3hPa Sur 2.9mph /  4.7km/h 5.9mph /  9.5km/h 81% 0in /  0.0mm
01:44 59.5 °F /  15.3 °C 53.6 °F /  12 °C 29.9in /  1013.2hPa Sur 3.2mph /  5.1km/h 9.2mph /  14.8km/h 80.7% 0in /  0.0mm
01:49 59.2 °F /  15.1 °C 53.1 °F /  11.7 °C 29.9in /  1013.2hPa SSO 4.7mph /  7.5km/h 9mph /  14.5km/h 80% 0in /  0.0mm
01:54 59.2 °F /  15.1 °C 53.1 °F /  11.7 °C 29.9in /  1013.2hPa SSO 4.7mph /  7.6km/h 8mph /  12.9km/h 79.9% 0in /  0.0mm
01:59 59.2 °F /  15.1 °C 52.7 °F /  11.5 °C 29.9in /  1013.2hPa SSO 4.7mph /  7.6km/h 7mph /  11.3km/h 79% 0in /  0.0mm
02:04 59.2 °F /  15.1 °C 52.7 °F /  11.5 °C 29.9in /  1013.2hPa SO 4.7mph /  7.5km/h 5.2mph /  8.4km/h 79% 0in /  0.0mm
02:09 59.2 °F /  15.1 °C 52.3 °F /  11.3 °C 29.9in /  1013.3hPa SSO 3.2mph /  5.1km/h 5mph /  8km/h 78% 0in /  0.0mm
02:14 59.2 °F /  15.1 °C 52.3 °F /  11.3 °C 29.9in /  1013.3hPa SSE 3mph /  4.8km/h 5.4mph /  8.7km/h 78% 0in /  0.0mm
02:19 59.2 °F /  15.1 °C 52.3 °F /  11.3 °C 29.9in /  1013.3hPa SE 2.4mph /  3.9km/h 5.8mph /  9.3km/h 78% 0in /  0.0mm
02:22 59 °F /  15 °C 51.8 °F /  11 °C 29.9in /  1013.4hPa SSE 2.4mph /  3.8km/h 6.9mph /  11.1km/h 76.9% 0in /  0.0mm
02:29 58.6 °F /  14.8 °C 50.7 °F /  10.4 °C 29.9in /  1013.4hPa SSO 3.6mph /  5.8km/h 5.9mph /  9.5km/h 74.6% 0in /  0.0mm
02:34 58.6 °F /  14.8 °C 50.2 °F /  10.1 °C 29.9in /  1013.4hPa SO 3.6mph /  5.8km/h 6mph /  9.7km/h 73.6% 0in /  0.0mm
02:39 58.8 °F /  14.9 °C 50 °F /  10 °C 29.9in /  1013.4hPa SSO 3.6mph /  5.8km/h 5.9mph /  9.5km/h 72.5% 0in /  0.0mm
02:44 58.8 °F /  14.9 °C 49.5 °F /  9.7 °C 29.9in /  1013.3hPa SSO 3.7mph /  6km/h 7.6mph /  12.2km/h 71.1% 0in /  0.0mm
02:49 59 °F /  15 °C 48.9 °F /  9.4 °C 29.9in /  1013.3hPa SO 4.7mph /  7.6km/h 8.5mph /  13.7km/h 69.3% 0in /  0.0mm
02:54 59 °F /  15 °C 48.9 °F /  9.4 °C 29.9in /  1013.3hPa SO 4.7mph /  7.6km/h 9mph /  14.5km/h 69% 0in /  0.0mm
02:58 59.2 °F /  15.1 °C 48.6 °F /  9.2 °C 29.9in /  1013.3hPa SSO 4.3mph /  7km/h 6mph /  9.7km/h 68% 0in /  0.0mm
03:04 59.2 °F /  15.1 °C 48.6 °F /  9.2 °C 29.9in /  1013.3hPa SSO 4.3mph /  6.9km/h 5.2mph /  8.4km/h 67.7% 0in /  0.0mm
03:09 59.4 °F /  15.2 °C 48.6 °F /  9.2 °C 29.9in /  1013.4hPa SSO 3.1mph /  5km/h 3.5mph /  5.6km/h 67% 0in /  0.0mm
03:14 59.5 °F /  15.3 °C 48.6 °F /  9.2 °C 29.9in /  1013.4hPa SSO 3mph /  4.8km/h 3.6mph /  5.8km/h 67% 0in /  0.0mm
03:19 59.5 °F /  15.3 °C 48.6 °F /  9.2 °C 29.9in /  1013.4hPa SSO 2mph /  3.2km/h 5.2mph /  8.4km/h 67% 0in /  0.0mm
03:24 59.4 °F /  15.2 °C 48.4 °F /  9.1 °C 29.9in /  1013.4hPa SSO 2mph /  3.2km/h 5.2mph /  8.4km/h 67% 0in /  0.0mm
03:29 59.4 °F /  15.2 °C 48.4 °F /  9.1 °C 29.9in /  1013.4hPa SO 3mph /  4.9km/h 5.4mph /  8.7km/h 67.1% 0in /  0.0mm
03:34 59.2 °F /  15.1 °C 47.8 °F /  8.8 °C 29.9in /  1013.4hPa Sur 3.2mph /  5.1km/h 6.2mph /  10km/h 66.2% 0in /  0.0mm
03:39 59 °F /  15 °C 47.3 °F /  8.5 °C 29.9in /  1013.4hPa SSO 3.6mph /  5.8km/h 6.2mph /  10km/h 65.2% 0in /  0.0mm
03:44 59.2 °F /  15.1 °C 48 °F /  8.9 °C 29.9in /  1013.3hPa SSO 3.7mph /  5.9km/h 6mph /  9.7km/h 66.6% 0in /  0.0mm
03:49 59.2 °F /  15.1 °C 48.2 °F /  9 °C 29.9in /  1013.3hPa SSO 4mph /  6.4km/h 6mph /  9.7km/h 67% 0in /  0.0mm
03:54 59.2 °F /  15.1 °C 47.8 °F /  8.8 °C 29.9in /  1013.3hPa Sur 4.1mph /  6.6km/h 6.9mph /  11.1km/h 66% 0in /  0.0mm
03:59 59 °F /  15 °C 47.3 °F /  8.5 °C 29.9in /  1013.3hPa SSE 4.3mph /  7km/h 8.1mph /  13km/h 65% 0in /  0.0mm
04:04 58.1 °F /  14.5 °C 46.6 °F /  8.1 °C 29.9in /  1013.3hPa SSE 4.7mph /  7.6km/h 9mph /  14.5km/h 65.4% 0in /  0.0mm
04:09 57.6 °F /  14.2 °C 46.6 °F /  8.1 °C 29.9in /  1013.3hPa SSE 5.9mph /  9.5km/h 9mph /  14.5km/h 66.8% 0in /  0.0mm
04:14 57 °F /  13.9 °C 46 °F /  7.8 °C 29.9in /  1013.3hPa Sur 5.9mph /  9.5km/h 8.1mph /  13km/h 66.8% 0in /  0.0mm
04:19 57 °F /  13.9 °C 45.7 °F /  7.6 °C 29.9in /  1013.3hPa Sur 5.9mph /  9.5km/h 8.1mph /  13km/h 65.6% 0in /  0.0mm
04:24 57.2 °F /  14 °C 45.1 °F /  7.3 °C 29.9in /  1013.3hPa Sur 5.7mph /  9.2km/h 8mph /  12.9km/h 63.9% 0in /  0.0mm
04:29 57.6 °F /  14.2 °C 44.2 °F /  6.8 °C 29.9in /  1013.2hPa Sur 4.7mph /  7.6km/h 7mph /  11.3km/h 61.3% 0in /  0.0mm
04:34 57.7 °F /  14.3 °C 43.7 °F /  6.5 °C 29.9in /  1013.2hPa Sur 4.7mph /  7.6km/h 9.2mph /  14.8km/h 59.7% 0in /  0.0mm
04:39 57.6 °F /  14.2 °C 42.6 °F /  5.9 °C 29.9in /  1013.3hPa Sur 5.9mph /  9.5km/h 10mph /  16.1km/h 57.3% 0in /  0.0mm
04:44 57.6 °F /  14.2 °C 41.9 °F /  5.5 °C 29.9in /  1013.3hPa Sur 5.9mph /  9.5km/h 9.2mph /  14.8km/h 55.7% 0in /  0.0mm
04:49 57.6 °F /  14.2 °C 41 °F /  5 °C 29.9in /  1013.3hPa SSE 6.2mph /  10km/h 9mph /  14.5km/h 54% 0in /  0.0mm
04:54 57.6 °F /  14.2 °C 41 °F /  5 °C 29.9in /  1013.3hPa Sur 6.2mph /  10km/h 7mph /  11.3km/h 54% 0in /  0.0mm
04:59 57.6 °F /  14.2 °C 41 °F /  5 °C 29.9in /  1013.3hPa SSE 4.3mph /  6.9km/h 5.8mph /  9.3km/h 54% 0in /  0.0mm
05:04 57.4 °F /  14.1 °C 41 °F /  5 °C 29.9in /  1013.3hPa Sur 4.2mph /  6.8km/h 6.9mph /  11.1km/h 54% 0in /  0.0mm
05:09 57.4 °F /  14.1 °C 40.8 °F /  4.9 °C 29.9in /  1013.3hPa SSE 4mph /  6.5km/h 7mph /  11.3km/h 54% 0in /  0.0mm
05:14 57 °F /  13.9 °C 40.5 °F /  4.7 °C 29.9in /  1013.3hPa Sur 4mph /  6.5km/h 6mph /  9.7km/h 54% 0in /  0.0mm
05:19 57 °F /  13.9 °C 40.3 °F /  4.6 °C 29.9in /  1013.3hPa Sur 4mph /  6.5km/h 6.9mph /  11.1km/h 53.7% 0in /  0.0mm
05:24 57 °F /  13.9 °C 39.9 °F /  4.4 °C 29.9in /  1013.3hPa Sur 4mph /  6.5km/h 7mph /  11.3km/h 52.6% 0in /  0.0mm
05:29 57 °F /  13.9 °C 39.9 °F /  4.4 °C 29.9in /  1013.3hPa SSE 4.7mph /  7.6km/h 8.5mph /  13.7km/h 52.9% 0in /  0.0mm
05:34 56.5 °F /  13.6 °C 39.6 °F /  4.2 °C 29.9in /  1013.3hPa SSE 4.8mph /  7.7km/h 10.7mph /  17.2km/h 53% 0in /  0.0mm
05:39 56.1 °F /  13.4 °C 38.8 °F /  3.8 °C 29.9in /  1013.5hPa SSE 6.2mph /  10km/h 11mph /  17.7km/h 52% 0in /  0.0mm
05:44 56.3 °F /  13.5 °C 38.5 °F /  3.6 °C 29.9in /  1013.5hPa SSE 6.3mph /  10.2km/h 11mph /  17.7km/h 51% 0in /  0.0mm
05:49 56.5 °F /  13.6 °C 38.5 °F /  3.6 °C 29.9in /  1013.5hPa SSE 6.9mph /  11.1km/h 10mph /  16.1km/h 50.8% 0in /  0.0mm
05:54 56.5 °F /  13.6 °C 38.3 °F /  3.5 °C 29.9in /  1013.7hPa SSE 6.8mph /  10.9km/h 9.2mph /  14.8km/h 50.5% 0in /  0.0mm
05:59 56.1 °F /  13.4 °C 38.3 °F /  3.5 °C 29.9in /  1013.7hPa SSE 6mph /  9.6km/h 9.7mph /  15.6km/h 51% 0in /  0.0mm
06:04 55.9 °F /  13.3 °C 38.1 °F /  3.4 °C 29.9in /  1013.7hPa SSE 6mph /  9.7km/h 10.4mph /  16.7km/h 51% 0in /  0.0mm
06:09 55.9 °F /  13.3 °C 38.1 °F /  3.4 °C 29.9in /  1013.9hPa SSE 6.4mph /  10.3km/h 10mph /  16.1km/h 51% 0in /  0.0mm
06:14 55.9 °F /  13.3 °C 38.1 °F /  3.4 °C 29.9in /  1013.9hPa SSE 6.4mph /  10.3km/h 10mph /  16.1km/h 50.9% 0in /  0.0mm
06:19 55.9 °F /  13.3 °C 37.6 °F /  3.1 °C 29.9in /  1013.9hPa SSE 6.2mph /  10km/h 8.1mph /  13km/h 50% 0in /  0.0mm
06:24 55.9 °F /  13.3 °C 37.6 °F /  3.1 °C 29.9in /  1014.0hPa SSE 6mph /  9.6km/h 7mph /  11.3km/h 50% 0in /  0.0mm
06:29 55.9 °F /  13.3 °C 37.6 °F /  3.1 °C 29.9in /  1014.0hPa Sur 5.2mph /  8.4km/h 8.1mph /  13km/h 50% 0in /  0.0mm
06:34 55.9 °F /  13.3 °C 37.2 °F /  2.9 °C 29.9in /  1014.0hPa Sur 5.2mph /  8.4km/h 8.1mph /  13km/h 49.4% 0in /  0.0mm
06:39 56.1 °F /  13.4 °C 37.4 °F /  3 °C 29.9in /  1014.0hPa Sur 5.4mph /  8.7km/h 8.1mph /  13km/h 49.6% 0in /  0.0mm
06:44 56.1 °F /  13.4 °C 37.9 °F /  3.3 °C 29.9in /  1014.0hPa Sur 5.4mph /  8.7km/h 9.2mph /  14.8km/h 50.5% 0in /  0.0mm
06:49 56.1 °F /  13.4 °C 38.1 °F /  3.4 °C 29.9in /  1014.0hPa Sur 5.9mph /  9.5km/h 9.2mph /  14.8km/h 51% 0in /  0.0mm
06:54 56.1 °F /  13.4 °C 38.1 °F /  3.4 °C 30in /  1014.2hPa Sur 5.9mph /  9.5km/h 9.2mph /  14.8km/h 51% 0in /  0.0mm
06:59 56.1 °F /  13.4 °C 38.7 °F /  3.7 °C 30in /  1014.2hPa Sur 5.9mph /  9.5km/h 8.1mph /  13km/h 51.8% 0in /  0.0mm
07:04 55.9 °F /  13.3 °C 38.7 °F /  3.7 °C 30in /  1014.2hPa Sur 5.8mph /  9.3km/h 9mph /  14.5km/h 52% 0in /  0.0mm
07:09 55.9 °F /  13.3 °C 38.7 °F /  3.7 °C 30in /  1014.2hPa Sur 5.2mph /  8.4km/h 8.1mph /  13km/h 52% 0in /  0.0mm
07:13 55.9 °F /  13.3 °C 38.7 °F /  3.7 °C 30in /  1014.2hPa SSO 5.2mph /  8.4km/h 8.1mph /  13km/h 52% 0in /  0.0mm
07:19 55.9 °F /  13.3 °C 38.7 °F /  3.7 °C 30in /  1014.2hPa Sur 5.4mph /  8.7km/h 9mph /  14.5km/h 52% 0in /  0.0mm
07:24 55.8 °F /  13.2 °C 38.5 °F /  3.6 °C 30in /  1014.3hPa Sur 5.4mph /  8.7km/h 6.9mph /  11.1km/h 52% 0in /  0.0mm
07:29 55.8 °F /  13.2 °C 38.5 °F /  3.6 °C 30in /  1014.3hPa Sur 4.7mph /  7.6km/h 9.2mph /  14.8km/h 52% 0in /  0.0mm
07:34 55.8 °F /  13.2 °C 38.5 °F /  3.6 °C 30in /  1014.3hPa Sur 4.7mph /  7.6km/h 8.1mph /  13km/h 52% 0in /  0.0mm
07:39 55.8 °F /  13.2 °C 38.3 °F /  3.5 °C 30in /  1014.6hPa Sur 5.4mph /  8.7km/h 8.1mph /  13km/h 51.8% 0in /  0.0mm
07:44 55.9 °F /  13.3 °C 38.1 °F /  3.4 °C 30in /  1014.6hPa Sur 5.4mph /  8.7km/h 8.5mph /  13.7km/h 51% 0in /  0.0mm
07:49 55.9 °F /  13.3 °C 37.8 °F /  3.2 °C 30in /  1014.6hPa Sur 5.4mph /  8.7km/h 9.2mph /  14.8km/h 50.4% 0in /  0.0mm
07:54 56.1 °F /  13.4 °C 37.8 °F /  3.2 °C 30in /  1014.7hPa Sur 5.4mph /  8.7km/h 7.4mph /  11.9km/h 50% 0in /  0.0mm
07:59 56.1 °F /  13.4 °C 37.2 °F /  2.9 °C 30in /  1014.7hPa SSO 5.4mph /  8.7km/h 7mph /  11.3km/h 49% 0in /  0.0mm
08:04 56.3 °F /  13.5 °C 37 °F /  2.8 °C 30in /  1014.7hPa SSO 5.4mph /  8.7km/h 7mph /  11.3km/h 48.6% 0in /  0.0mm
08:09 56.5 °F /  13.6 °C 37 °F /  2.8 °C 30in /  1014.8hPa Sur 4.3mph /  6.9km/h 6.9mph /  11.1km/h 48% 0in /  0.0mm
08:14 56.5 °F /  13.6 °C 36.5 °F /  2.5 °C 30in /  1014.8hPa SSO 4.2mph /  6.8km/h 7.4mph /  11.9km/h 47% 0in /  0.0mm
08:19 56.7 °F /  13.7 °C 36.5 °F /  2.5 °C 30in /  1014.8hPa SO 4mph /  6.5km/h 7.4mph /  11.9km/h 47% 0in /  0.0mm
08:24 56.7 °F /  13.7 °C 36.5 °F /  2.5 °C 30in /  1014.9hPa SO 4mph /  6.5km/h 8.1mph /  13km/h 47% 0in /  0.0mm
08:29 56.7 °F /  13.7 °C 36.5 °F /  2.5 °C 30in /  1014.9hPa SO 4.3mph /  7km/h 8.1mph /  13km/h 47% 0in /  0.0mm
08:34 56.5 °F /  13.6 °C 36 °F /  2.2 °C 30in /  1014.9hPa SO 4.3mph /  7km/h 8mph /  12.9km/h 46% 0in /  0.0mm
08:38 56.7 °F /  13.7 °C 36 °F /  2.2 °C 30in /  1014.9hPa SO 4.3mph /  7km/h 8.1mph /  13km/h 46% 0in /  0.0mm
08:44 56.7 °F /  13.7 °C 36.1 °F /  2.3 °C 30in /  1014.9hPa OSO 4.5mph /  7.3km/h 9.2mph /  14.8km/h 46% 0in /  0.0mm
08:48 56.7 °F /  13.7 °C 36.1 °F /  2.3 °C 30in /  1014.9hPa SO 5.2mph /  8.4km/h 7.4mph /  11.9km/h 46% 0in /  0.0mm
08:54 56.8 °F /  13.8 °C 36.3 °F /  2.4 °C 30in /  1015.0hPa OSO 5.1mph /  8.2km/h 8.1mph /  13km/h 46% 0in /  0.0mm
08:59 57 °F /  13.9 °C 36.3 °F /  2.4 °C 30in /  1015.0hPa OSO 4.3mph /  7km/h 8mph /  12.9km/h 46% 0in /  0.0mm
09:04 57.4 °F /  14.1 °C 36.5 °F /  2.5 °C 30in /  1015.0hPa OSO 4.3mph /  6.9km/h 9.2mph /  14.8km/h 45.8% 0in /  0.0mm
09:09 57.6 °F /  14.2 °C 36.5 °F /  2.5 °C 30in /  1015.2hPa SO 4.3mph /  7km/h 9.2mph /  14.8km/h 45.2% 0in /  0.0mm
09:14 57.7 °F /  14.3 °C 36.5 °F /  2.5 °C 30in /  1015.2hPa SO 4.6mph /  7.4km/h 11.2mph /  18km/h 44.9% 0in /  0.0mm
09:18 57.9 °F /  14.4 °C 36.1 °F /  2.3 °C 30in /  1015.2hPa SO 5.4mph /  8.7km/h 12mph /  19.3km/h 44% 0in /  0.0mm
09:24 58.5 °F /  14.7 °C 36.5 °F /  2.5 °C 30in /  1015.5hPa OSO 5.5mph /  8.9km/h 10.4mph /  16.7km/h 44% 0in /  0.0mm
09:29 58.6 °F /  14.8 °C 36.3 °F /  2.4 °C 30in /  1015.5hPa OSO 6.2mph /  10km/h 10.4mph /  16.7km/h 43.2% 0in /  0.0mm
09:34 58.6 °F /  14.8 °C 36.3 °F /  2.4 °C 30in /  1015.5hPa SO 6.2mph /  9.9km/h 10.4mph /  16.7km/h 43.2% 0in /  0.0mm
09:39 59 °F /  15 °C 36.5 °F /  2.5 °C 30in /  1015.7hPa OSO 5.9mph /  9.5km/h 11.5mph /  18.5km/h 43% 0in /  0.0mm
09:44 59.4 °F /  15.2 °C 36.7 °F /  2.6 °C 30in /  1015.7hPa SO 5.9mph /  9.5km/h 9.2mph /  14.8km/h 42.9% 0in /  0.0mm
09:49 59.5 °F /  15.3 °C 36.9 °F /  2.7 °C 30in /  1015.7hPa OSO 6.2mph /  10km/h 9.2mph /  14.8km/h 42.9% 0in /  0.0mm
09:54 59.7 °F /  15.4 °C 36.5 °F /  2.5 °C 30in /  1015.8hPa SO 6.2mph /  9.9km/h 8.1mph /  13km/h 42% 0in /  0.0mm
09:59 60.1 °F /  15.6 °C 36.9 °F /  2.7 °C 30in /  1015.8hPa OSO 5.2mph /  8.4km/h 8.1mph /  13km/h 42% 0in /  0.0mm
10:04 60.4 °F /  15.8 °C 36.9 °F /  2.7 °C 30in /  1015.8hPa SO 5.2mph /  8.3km/h 8.5mph /  13.7km/h 41.4% 0in /  0.0mm
10:09 60.8 °F /  16 °C 37 °F /  2.8 °C 30in /  1015.9hPa SSO 4.7mph /  7.6km/h 9.2mph /  14.8km/h 41% 0in /  0.0mm
10:14 61.3 °F /  16.3 °C 37.4 °F /  3 °C 30in /  1015.9hPa SSO 4.7mph /  7.6km/h 9.2mph /  14.8km/h 41% 0in /  0.0mm
10:19 61.9 °F /  16.6 °C 37.8 °F /  3.2 °C 30in /  1015.9hPa SO 5.2mph /  8.4km/h 9mph /  14.5km/h 41% 0in /  0.0mm
10:24 62.1 °F /  16.7 °C 37.9 °F /  3.3 °C 30in /  1015.9hPa SO 5.2mph /  8.3km/h 8.5mph /  13.7km/h 41% 0in /  0.0mm
10:29 62.4 °F /  16.9 °C 37.6 °F /  3.1 °C 30in /  1015.9hPa OSO 4.7mph /  7.6km/h 10.4mph /  16.7km/h 39.6% 0in /  0.0mm
10:34 63 °F /  17.2 °C 37 °F /  2.8 °C 30in /  1015.9hPa SO 4.8mph /  7.7km/h 12.7mph /  20.4km/h 38.4% 0in /  0.0mm
10:39 63.1 °F /  17.3 °C 37.2 °F /  2.9 °C 30in /  1016.1hPa OSO 5.9mph /  9.5km/h 13mph /  20.9km/h 38.2% 0in /  0.0mm
10:44 63.5 °F /  17.5 °C 37.4 °F /  3 °C 30in /  1016.1hPa OSO 5.8mph /  9.4km/h 11mph /  17.7km/h 38% 0in /  0.0mm
10:49 63.9 °F /  17.7 °C 37.6 °F /  3.1 °C 30in /  1016.1hPa Oeste 5.4mph /  8.7km/h 12mph /  19.3km/h 37.8% 0in /  0.0mm
10:54 63.9 °F /  17.7 °C 37 °F /  2.8 °C 30in /  1016.1hPa Oeste 5.6mph /  9km/h 13.8mph /  22.2km/h 37% 0in /  0.0mm
10:59 64 °F /  17.8 °C 37.2 °F /  2.9 °C 30in /  1016.1hPa Oeste 6.9mph /  11.1km/h 12.5mph /  20.1km/h 36.9% 0in /  0.0mm
11:04 64.2 °F /  17.9 °C 36.7 °F /  2.6 °C 30in /  1016.1hPa Oeste 7mph /  11.2km/h 19mph /  30.6km/h 36% 0in /  0.0mm
11:09 64.2 °F /  17.9 °C 36.7 °F /  2.6 °C 30in /  1016.1hPa OSO 7.6mph /  12.2km/h 19mph /  30.6km/h 36% 0in /  0.0mm
11:14 64.6 °F /  18.1 °C 36.9 °F /  2.7 °C 30in /  1016.1hPa OSO 7.6mph /  12.3km/h 18.1mph /  29.1km/h 35.9% 0in /  0.0mm
11:19 64.8 °F /  18.2 °C 36.5 °F /  2.5 °C 30in /  1016.1hPa OSO 8.5mph /  13.7km/h 18.4mph /  29.6km/h 35.1% 0in /  0.0mm
11:24 64.8 °F /  18.2 °C 36.7 °F /  2.6 °C 30in /  1016.1hPa OSO 8.5mph /  13.7km/h 15mph /  24.1km/h 35.2% 0in /  0.0mm
11:29 65.1 °F /  18.4 °C 36.9 °F /  2.7 °C 30in /  1016.0hPa OSO 8.7mph /  14km/h 15mph /  24.1km/h 35.2% 0in /  0.0mm
11:33 65.5 °F /  18.6 °C 37 °F /  2.8 °C 30in /  1016.0hPa OSO 8.7mph /  14km/h 15mph /  24.1km/h 35% 0in /  0.0mm
Murcia-Puente Tocinos, España
Compliments of Weather Underground - 2 mb

La estación de MeteoMurcia.com, publica sus datos en los siguientes proyectos:

Weather Underground PWS IMURCIAP2 Meteoclimatic www.awekas.at

W3Counter
Web Analytics